Time;durP1;ratioP1;P1;durP2;ratioP2;P2;SDS_P1;SDS_P2;PMS_P1;PMS_P2;Temp;Humidity;BMP_temperature;BMP_pressure;BME280_temperature;BME280_humidity;BME280_pressure;Samples;Min_cycle;Max_cycle;Signal;HPM_P1;HPM_P2
2023/09/13 00:06:04;;;;;;;23.23;20.73;;;;;;;19.79;76.06;100092.78;20607516;28;20321;-82
2023/09/13 00:16:09;;;;;;;26.52;19.88;;;;;;;20.47;74.13;100098.91;20628285;28;20235;-85
2023/09/13 00:26:11;;;;;;;23.77;20.25;;;;;;;20.07;74.64;100097.06;20611532;28;20207;-84
2023/09/13 00:36:14;;;;;;;23.52;17.30;;;;;;;19.79;73.71;100114.81;20635589;28;20741;-80
2023/09/13 00:46:16;;;;;;;18.67;14.50;;;;;;;19.64;72.30;100116.75;20609330;28;20198;-79
2023/09/13 00:56:19;;;;;;;18.08;14.90;;;;;;;19.29;74.13;100140.91;20611018;28;20228;-84
2023/09/13 01:06:21;;;;;;;19.58;16.55;;;;;;;19.21;74.06;100133.50;20613263;28;20562;-78
2023/09/13 01:16:28;;;;;;;25.95;18.52;;;;;;;19.45;73.38;100148.41;20605744;28;20230;-81
2023/09/13 01:26:51;;;;;;;28.27;21.73;;;;;;;19.07;75.12;100129.66;20596964;28;20217;-84
2023/09/13 01:36:56;;;;;;;32.53;24.67;;;;;;;19.57;74.03;100134.66;20593932;28;20218;-78
2023/09/13 01:46:58;;;;;;;44.95;32.00;;;;;;;19.48;74.50;100134.16;20599459;28;20194;-77
2023/09/13 01:57:01;;;;;;;43.85;32.65;;;;;;;19.83;73.65;100147.06;20591974;28;20268;-78
2023/09/13 02:07:03;;;;;;;42.95;31.65;;;;;;;19.78;74.21;100151.13;20601403;28;20202;-78
2023/09/13 02:17:07;;;;;;;51.17;35.63;;;;;;;20.02;73.15;100156.22;20615620;28;20511;-78
2023/09/13 02:27:09;;;;;;;56.67;38.08;;;;;;;19.56;76.36;100169.28;20598249;28;20202;-82
2023/09/13 02:37:12;;;;;;;40.47;31.00;;;;;;;19.59;75.82;100172.19;20594198;28;20229;-81
2023/09/13 02:47:14;;;;;;;26.10;21.17;;;;;;;19.50;72.73;100176.56;20612767;28;20198;-79
2023/09/13 02:57:17;;;;;;;17.60;14.82;;;;;;;19.55;71.46;100182.75;20599704;28;20614;-78
2023/09/13 03:07:19;;;;;;;17.20;14.25;;;;;;;19.33;72.19;100173.16;20595269;28;20297;-79
2023/09/13 03:17:22;;;;;;;16.80;14.20;;;;;;;19.29;73.67;100180.88;20595310;28;20224;-79
2023/09/13 03:27:24;;;;;;;23.67;18.60;;;;;;;19.30;74.05;100171.09;20603230;28;20209;-79
2023/09/13 03:37:27;;;;;;;27.10;20.35;;;;;;;19.65;73.81;100164.06;20603181;28;20236;-85
2023/09/13 03:47:29;;;;;;;31.17;23.10;;;;;;;19.46;75.23;100185.13;20594286;28;20205;-86
2023/09/13 03:57:32;;;;;;;32.15;23.50;;;;;;;19.54;74.06;100169.69;20604525;28;20237;-80
2023/09/13 04:07:33;;;;;;;34.42;24.88;;;;;;;19.12;75.76;100186.34;20605571;28;20198;-86
2023/09/13 04:17:37;;;;;;;39.40;28.50;;;;;;;19.23;76.50;100182.38;20602480;28;20223;-81
2023/09/13 04:27:38;;;;;;;41.63;30.20;;;;;;;19.06;77.07;100200.16;20600927;28;20210;-84
2023/09/13 04:37:42;;;;;;;38.95;28.08;;;;;;;19.20;75.17;100182.38;20599668;28;20517;-82
2023/09/13 04:47:44;;;;;;;36.42;26.23;;;;;;;19.48;74.69;100188.41;20588713;28;20221;-84
2023/09/13 04:57:47;;;;;;;35.92;27.80;;;;;;;19.42;74.97;100194.84;20580918;28;20237;-80
2023/09/13 05:07:48;;;;;;;36.58;27.48;;;;;;;19.12;75.57;100217.72;20590886;28;20293;-84
2023/09/13 05:17:52;;;;;;;30.40;23.30;;;;;;;19.39;73.93;100212.75;20583025;28;20229;-78
2023/09/13 05:27:53;;;;;;;38.45;28.42;;;;;;;19.53;73.93;100221.44;20585267;28;20205;-80
2023/09/13 05:37:56;;;;;;;46.22;32.92;;;;;;;19.95;72.23;100236.16;20584118;28;20218;-78
2023/09/13 05:47:59;;;;;;;41.22;28.25;;;;;;;19.34;74.15;100239.63;20585314;28;20202;-80
2023/09/13 05:58:02;;;;;;;41.85;27.98;;;;;;;19.15;75.42;100243.44;20581623;28;20229;-79
2023/09/13 06:08:04;;;;;;;28.92;23.05;;;;;;;19.02;75.25;100255.50;20579039;28;20206;-78
2023/09/13 06:18:08;;;;;;;43.50;28.98;;;;;;;18.21;78.25;100285.25;20587492;28;20218;-81
2023/09/13 06:28:09;;;;;;;53.55;36.40;;;;;;;18.82;75.68;100289.06;20586535;28;20212;-82
2023/09/13 06:38:13;;;;;;;56.83;37.05;;;;;;;18.51;77.18;100299.56;20585975;28;20226;-80
2023/09/13 06:48:15;;;;;;;63.10;39.97;;;;;;;18.69;75.74;100304.75;20573937;28;20198;-78
2023/09/13 06:58:18;;;;;;;61.90;38.70;;;;;;;19.01;74.53;100317.41;20597118;28;20230;-78
2023/09/13 07:08:20;;;;;;;61.60;37.80;;;;;;;18.63;75.69;100330.72;20603272;28;20202;-77
2023/09/13 07:18:24;;;;;;;55.92;34.72;;;;;;;18.14;76.83;100335.59;20607223;28;20222;-83
2023/09/13 07:28:25;;;;;;;50.22;31.10;;;;;;;18.44;75.92;100350.78;20608881;28;20202;-81
2023/09/13 07:38:30;;;;;;;46.50;30.75;;;;;;;18.55;73.89;100362.34;20605036;28;20234;-78
2023/09/13 07:48:31;;;;;;;42.90;30.23;;;;;;;18.87;73.36;100365.69;20600490;28;20200;-78
2023/09/13 07:58:34;;;;;;;46.53;32.00;;;;;;;19.00;73.21;100378.50;20601040;28;20238;-79
2023/09/13 08:08:36;;;;;;;41.03;28.75;;;;;;;19.17;71.93;100402.81;20599278;28;20646;-80
2023/09/13 08:18:39;;;;;;;51.58;31.10;;;;;;;19.54;72.97;100414.34;20589571;28;20226;-88
2023/09/13 08:28:41;;;;;;;41.78;29.27;;;;;;;19.14;72.94;100415.81;20584665;28;20207;-81
2023/09/13 08:38:44;;;;;;;42.90;28.13;;;;;;;19.07;71.24;100438.53;20580736;28;20230;-83
2023/09/13 08:48:47;;;;;;;39.42;28.38;;;;;;;18.96;71.37;100451.81;20588477;28;20198;-88
2023/09/13 08:58:52;;;;;;;42.17;29.98;;;;;;;19.21;70.85;100447.31;20586768;28;20591;-86
2023/09/13 09:08:54;;;;;;;47.33;31.38;;;;;;;19.66;71.09;100472.00;20593482;28;20302;-88
2023/09/13 09:18:59;;;;;;;43.70;28.80;;;;;;;19.69;68.94;100473.25;20595966;28;20320;-86
2023/09/13 09:29:18;;;;;;;40.58;27.65;;;;;;;19.88;69.10;100470.22;20586339;28;20206;-80
2023/09/13 09:39:22;;;;;;;35.63;24.73;;;;;;;19.09;71.04;100472.38;20582161;28;20265;-86
2023/09/13 09:49:24;;;;;;;36.10;23.85;;;;;;;19.62;68.82;100470.31;20573081;28;20214;-82
2023/09/13 09:59:29;;;;;;;31.92;22.90;;;;;;;20.47;65.91;100471.34;20584970;28;20504;-87
2023/09/13 10:09:39;;;;;;;31.25;22.88;;;;;;;19.93;65.37;100484.22;20581961;28;20587;-89
2023/09/13 10:19:42;;;;;;;27.05;21.70;;;;;;;19.63;66.81;100475.63;20590798;28;20199;-81
2023/09/13 10:29:47;;;;;;;31.73;22.13;;;;;;;19.36;66.36;100504.59;20584048;28;20205;-81
2023/09/13 10:39:52;;;;;;;11.82;8.95;;;;;;;17.91;74.70;100538.53;20588037;28;20209;-80
2023/09/13 10:49:55;;;;;;;4.93;3.47;;;;;;;17.85;73.07;100551.41;20604242;28;20280;-85
2023/09/13 10:59:59;;;;;;;6.00;4.53;;;;;;;17.54;73.61;100579.97;20589276;28;20248;-89
2023/09/13 11:10:05;;;;;;;3.72;2.63;;;;;;;17.60;72.68;100601.25;20583966;28;20225;-81
2023/09/13 11:20:27;;;;;;;3.58;2.30;;;;;;;17.84;71.36;100617.25;20569763;28;20204;-79
2023/09/13 11:30:48;;;;;;;3.80;2.95;;;;;;;17.82;69.70;100646.09;20570357;28;20233;-80
2023/09/13 11:40:55;;;;;;;2.58;2.38;;;;;;;17.08;72.58;100664.94;20573030;28;20290;-88
2023/09/13 11:50:57;;;;;;;2.28;1.55;;;;;;;17.66;68.54;100664.41;20586345;28;20251;-83
2023/09/13 12:01:00;;;;;;;1.98;1.75;;;;;;;18.09;66.47;100674.81;20592576;28;20282;-81
2023/09/13 12:11:04;;;;;;;5.00;1.98;;;;;;;17.77;67.01;100686.25;20596325;28;20226;-89
2023/09/13 12:21:07;;;;;;;4.90;1.45;;;;;;;18.21;66.87;100708.84;20592027;28;20502;-87
2023/09/13 12:31:11;;;;;;;3.65;1.42;;;;;;;18.25;66.10;100718.31;20594993;28;20229;-83
2023/09/13 12:41:16;;;;;;;3.42;1.30;;;;;;;17.41;65.01;100754.81;20587004;28;20206;-84
2023/09/13 12:51:20;;;;;;;4.43;1.30;;;;;;;18.24;62.07;100739.47;20573358;28;20259;-82
2023/09/13 13:01:24;;;;;;;3.80;0.85;;;;;;;18.21;64.36;100748.75;20589700;28;20238;-81
2023/09/13 13:11:25;;;;;;;2.03;1.13;;;;;;;18.90;60.71;100758.47;20580662;28;20273;-85
2023/09/13 13:21:29;;;;;;;3.65;0.73;;;;;;;18.43;57.86;100762.31;20590019;28;20608;-82
2023/09/13 13:31:30;;;;;;;2.55;0.90;;;;;;;18.49;58.08;100766.50;20599042;28;20269;-82
2023/09/13 13:41:34;;;;;;;1.67;0.93;;;;;;;18.52;59.08;100794.25;20592256;28;20315;-88
2023/09/13 13:51:35;;;;;;;3.03;1.13;;;;;;;18.31;59.06;100795.78;20591557;28;20221;-80
2023/09/13 14:01:39;;;;;;;3.38;0.82;;;;;;;18.20;58.40;100807.72;20584065;28;20329;-81
2023/09/13 14:11:41;;;;;;;1.70;0.50;;;;;;;18.50;58.35;100822.31;20588359;28;20227;-83
2023/09/13 14:21:44;;;;;;;2.25;0.90;;;;;;;17.83;57.94;100827.09;20578223;28;20194;-92
2023/09/13 14:31:46;;;;;;;3.15;0.50;;;;;;;17.70;57.45;100847.47;20603214;28;20218;-82
2023/09/13 14:41:52;;;;;;;1.33;0.50;;;;;;;17.89;56.53;100851.28;20603423;28;20468;-94
2023/09/13 14:51:54;;;;;;;3.28;0.60;;;;;;;17.60;56.82;100850.88;20581261;28;20632;-90
2023/09/13 15:01:58;;;;;;;2.83;0.85;;;;;;;17.76;58.57;100855.41;20593503;28;20229;-83
2023/09/13 15:12:00;;;;;;;1.83;0.63;;;;;;;17.73;56.28;100872.38;20594660;28;20249;-84
2023/09/13 15:22:03;;;;;;;3.08;0.82;;;;;;;18.20;56.30;100864.72;20601946;28;20208;-81
2023/09/13 15:32:05;;;;;;;3.28;0.88;;;;;;;18.22;54.74;100867.19;20604599;28;20257;-81
2023/09/13 15:42:08;;;;;;;1.98;1.05;;;;;;;17.62;55.91;100869.22;20604243;28;20199;-88
2023/09/13 15:52:10;;;;;;;1.80;0.95;;;;;;;17.76;54.32;100872.47;20607044;28;20322;-87
2023/09/13 16:02:13;;;;;;;2.90;1.23;;;;;;;17.84;55.28;100873.47;20601516;28;20245;-85
2023/09/13 16:12:15;;;;;;;2.88;1.17;;;;;;;18.01;55.06;100889.44;20592754;28;20226;-82
2023/09/13 16:22:18;;;;;;;3.05;1.10;;;;;;;17.37;55.96;100882.75;20608727;28;20202;-80
2023/09/13 16:32:20;;;;;;;4.63;1.10;;;;;;;18.02;55.97;100886.22;20599347;28;20281;-78
2023/09/13 16:42:24;;;;;;;4.57;1.45;;;;;;;17.98;57.85;100890.97;20598150;28;20570;-79
2023/09/13 16:52:25;;;;;;;3.22;1.35;;;;;;;17.81;59.42;100903.50;20588086;28;20631;-80
2023/09/13 17:02:29;;;;;;;3.47;1.10;;;;;;;17.78;56.96;100901.41;20604026;28;20329;-83
2023/09/13 17:12:33;;;;;;;2.42;0.75;;;;;;;17.32;60.81;100919.16;20592766;28;20646;-80
2023/09/13 17:22:36;;;;;;;5.45;0.85;;;;;;;17.61;56.62;100920.81;20579931;28;20205;-80
2023/09/13 17:32:37;;;;;;;0.90;0.50;;;;;;;17.26;56.71;100934.84;20581861;28;20269;-81
2023/09/13 17:42:40;;;;;;;1.90;0.60;;;;;;;17.74;55.28;100942.34;20587153;28;20495;-81
2023/09/13 17:52:42;;;;;;;1.23;0.70;;;;;;;17.10;57.48;100966.84;20574078;28;20519;-81
2023/09/13 18:02:45;;;;;;;0.73;0.60;;;;;;;17.40;56.49;100967.41;20580784;28;20247;-85
2023/09/13 18:12:48;;;;;;;1.00;0.50;;;;;;;16.92;59.51;100979.63;20597970;28;20586;-82
2023/09/13 18:22:51;;;;;;;2.60;0.73;;;;;;;16.58;60.83;100995.16;20590939;28;20202;-81
2023/09/13 18:32:52;;;;;;;3.95;0.88;;;;;;;17.16;60.21;101002.34;20580992;28;20317;-82
2023/09/13 18:42:56;;;;;;;2.85;0.82;;;;;;;17.04;61.86;101016.59;20582936;28;20221;-88
2023/09/13 18:52:57;;;;;;;3.78;1.10;;;;;;;16.78;61.28;101013.28;20586684;28;20214;-80
2023/09/13 19:03:05;;;;;;;2.38;1.08;;;;;;;16.42;61.42;101017.72;20585148;28;20272;-82
2023/09/13 19:13:13;;;;;;;3.45;1.33;;;;;;;16.01;62.76;101041.38;20583415;28;20230;-82
2023/09/13 19:23:16;;;;;;;2.85;0.80;;;;;;;16.56;58.96;101047.84;20575010;28;20252;-89
2023/09/13 19:33:21;;;;;;;2.58;1.00;;;;;;;16.46;59.28;101055.63;20583391;28;20229;-81
2023/09/13 19:43:24;;;;;;;2.25;1.00;;;;;;;16.47;58.69;101062.94;20588845;28;20302;-80
2023/09/13 19:53:27;;;;;;;4.95;1.20;;;;;;;16.33;58.51;101079.47;20580267;28;20595;-82
2023/09/13 20:03:30;;;;;;;4.10;0.93;;;;;;;15.89;61.44;101100.09;20593239;28;20634;-82
2023/09/13 20:13:37;;;;;;;2.78;0.88;;;;;;;16.15;60.05;101098.69;20608130;28;20650;-86
2023/09/13 20:23:41;;;;;;;2.47;0.80;;;;;;;16.51;58.13;101092.34;20597452;28;20209;-87
2023/09/13 20:33:44;;;;;;;4.47;1.10;;;;;;;16.38;59.37;101093.44;20598391;28;20309;-87
2023/09/13 20:43:47;;;;;;;5.63;1.08;;;;;;;16.45;60.44;101096.56;20594738;28;20423;-81
2023/09/13 20:53:49;;;;;;;2.45;0.80;;;;;;;16.59;59.46;101106.81;20593166;28;20530;-82
2023/09/13 21:03:52;;;;;;;2.55;1.00;;;;;;;16.76;58.69;101120.81;20625497;28;20658;-87
2023/09/13 21:13:54;;;;;;;5.28;1.42;;;;;;;16.27;60.46;101116.97;20594409;28;20220;-84
2023/09/13 21:23:58;;;;;;;6.00;1.10;;;;;;;16.56;60.74;101114.03;20591316;28;20505;-87
2023/09/13 21:33:59;;;;;;;3.53;1.58;;;;;;;16.38;60.60;101119.00;20593474;28;20257;-86
2023/09/13 21:44:04;;;;;;;7.20;2.03;;;;;;;16.13;60.52;101111.56;20597511;28;20199;-84
2023/09/13 21:54:06;;;;;;;6.05;1.48;;;;;;;16.20;60.75;101117.53;20598353;28;20507;-84
2023/09/13 22:04:09;;;;;;;6.00;1.42;;;;;;;15.82;62.41;101116.88;20593284;28;20234;-88
2023/09/13 22:14:11;;;;;;;7.00;1.88;;;;;;;15.50;61.69;101124.06;20593022;28;20230;-83
2023/09/13 22:24:23;;;;;;;3.90;1.40;;;;;;;15.24;62.74;101115.69;20598629;28;20508;-84
2023/09/13 22:34:25;;;;;;;5.90;1.23;;;;;;;15.05;62.71;101122.66;20601411;28;20249;-87
2023/09/13 22:44:28;;;;;;;6.93;1.35;;;;;;;15.19;62.32;101133.75;20593410;28;20210;-90
2023/09/13 22:54:30;;;;;;;6.85;1.50;;;;;;;14.96;63.59;101135.97;20594951;28;20223;-88
2023/09/13 23:04:33;;;;;;;3.47;1.55;;;;;;;14.48;65.69;101146.78;20593335;28;20230;-89
2023/09/13 23:14:35;;;;;;;4.57;1.30;;;;;;;14.66;64.99;101151.25;20594874;28;20523;-87
2023/09/13 23:24:41;;;;;;;4.43;1.40;;;;;;;14.29;67.15;101166.97;20592587;28;20194;-86
2023/09/13 23:34:42;;;;;;;5.32;1.30;;;;;;;14.22;66.29;101164.63;20593181;28;20265;-85
2023/09/13 23:44:45;;;;;;;3.47;1.27;;;;;;;13.99;67.23;101163.09;20613310;28;20199;-84
2023/09/13 23:54:47;;;;;;;6.00;1.58;;;;;;;14.54;65.20;101163.28;20611190;28;20222;-83
